createdAt,value
2022-11-15T00:00:10.000Z,7.1
2022-11-15T00:01:26.000Z,7.3
2022-11-15T00:02:42.000Z,8.1
2022-11-15T00:03:57.000Z,7.7
2022-11-15T00:05:13.000Z,7.5
2022-11-15T00:07:46.000Z,6.8
2022-11-15T00:09:02.000Z,7.2
2022-11-15T00:10:18.000Z,7.1
2022-11-15T00:11:35.000Z,7.3
2022-11-15T00:12:51.000Z,7.2
2022-11-15T00:14:06.000Z,7.1
2022-11-15T00:15:23.000Z,7.1
2022-11-15T00:16:39.000Z,6.5
2022-11-15T00:17:55.000Z,8
2022-11-15T00:19:12.000Z,6.9
2022-11-15T00:20:28.000Z,7
2022-11-15T00:21:44.000Z,6.7
2022-11-15T00:23:00.000Z,7.7
2022-11-15T00:24:17.000Z,7
2022-11-15T00:25:33.000Z,7.3
2022-11-15T00:26:49.000Z,7
2022-11-15T00:28:06.000Z,7.8
2022-11-15T00:29:22.000Z,7.5
2022-11-15T00:30:37.000Z,7.4
2022-11-15T00:31:52.000Z,8.2
2022-11-15T00:33:09.000Z,7.1
2022-11-15T00:34:25.000Z,7.2
2022-11-15T00:35:41.000Z,7.3
2022-11-15T00:36:58.000Z,7
2022-11-15T00:38:14.000Z,7.1
2022-11-15T00:39:30.000Z,7.4
2022-11-15T00:40:46.000Z,7.8
2022-11-15T00:42:03.000Z,7.2
2022-11-15T00:43:19.000Z,7.4
2022-11-15T00:45:52.000Z,7.5
2022-11-15T00:47:08.000Z,7.3
2022-11-15T00:48:23.000Z,7.3
2022-11-15T00:49:39.000Z,7.5
2022-11-15T00:50:56.000Z,7.2
2022-11-15T00:52:12.000Z,7.4
2022-11-15T00:53:28.000Z,7.2
2022-11-15T00:54:45.000Z,7.8
2022-11-15T00:56:01.000Z,7.7
2022-11-15T00:58:33.000Z,7
2022-11-15T00:59:50.000Z,7.2
2022-11-15T01:01:06.000Z,8.8
2022-11-15T01:02:22.000Z,7.2
2022-11-15T01:03:39.000Z,7.1
2022-11-15T01:04:54.000Z,7.2
2022-11-15T01:06:10.000Z,7.3
2022-11-15T01:07:27.000Z,7.3
2022-11-15T01:08:43.000Z,6.7
2022-11-15T01:09:59.000Z,7.1
2022-11-15T01:11:15.000Z,6.6
2022-11-15T01:12:32.000Z,6.7
2022-11-15T01:13:48.000Z,7
2022-11-15T01:15:04.000Z,6.9
2022-11-15T01:16:21.000Z,6.7
2022-11-15T01:17:37.000Z,6.4
2022-11-15T01:18:53.000Z,6.5
2022-11-15T01:20:09.000Z,6.3
2022-11-15T01:21:25.000Z,7.1
2022-11-15T01:22:41.000Z,6.7
2022-11-15T01:23:57.000Z,7.1
2022-11-15T01:25:14.000Z,7.5
2022-11-15T01:26:30.000Z,6.6
2022-11-15T01:27:46.000Z,6.3
2022-11-15T01:29:02.000Z,6.9
2022-11-15T01:30:19.000Z,6.8
2022-11-15T01:31:35.000Z,7.7
2022-11-15T01:32:51.000Z,7.3
2022-11-15T01:34:08.000Z,7.2
2022-11-15T01:36:40.000Z,6.9
2022-11-15T01:37:55.000Z,6.7
2022-11-15T01:39:12.000Z,7.5
2022-11-15T01:40:28.000Z,7.5
2022-11-15T01:41:44.000Z,6.7
2022-11-15T01:43:01.000Z,6.8
2022-11-15T01:44:17.000Z,6.7
2022-11-15T01:45:33.000Z,7.1
2022-11-15T01:46:49.000Z,6.9
2022-11-15T01:49:22.000Z,6.6
2022-11-15T01:51:55.000Z,6.8
2022-11-15T01:53:10.000Z,6.9
2022-11-15T01:54:25.000Z,6.9
2022-11-15T01:55:42.000Z,6.5
2022-11-15T01:56:58.000Z,7
2022-11-15T01:58:14.000Z,6.3
2022-11-15T02:00:47.000Z,6.5
2022-11-15T02:02:03.000Z,6.6
2022-11-15T02:03:19.000Z,6.7
2022-11-15T02:04:36.000Z,6.9
2022-11-15T02:05:52.000Z,7.2
2022-11-15T02:07:08.000Z,6.6
2022-11-15T02:08:24.000Z,7.1
2022-11-15T02:09:41.000Z,6.1
2022-11-15T02:10:56.000Z,5.9
2022-11-15T02:12:12.000Z,7.1
2022-11-15T02:14:45.000Z,6.4
2022-11-15T02:16:00.000Z,7.1
2022-11-15T02:17:15.000Z,7.1
2022-11-15T02:18:32.000Z,6.5
2022-11-15T02:19:48.000Z,6.2
2022-11-15T02:21:04.000Z,6.8
2022-11-15T02:22:21.000Z,7
2022-11-15T02:23:37.000Z,6.3
2022-11-15T02:24:53.000Z,6.2
2022-11-15T02:27:26.000Z,6.7
2022-11-15T02:28:42.000Z,6.5
2022-11-15T02:31:15.000Z,6.4
2022-11-15T02:32:31.000Z,6.6
2022-11-15T02:33:46.000Z,7
2022-11-15T02:35:03.000Z,6.8
2022-11-15T02:36:19.000Z,7.1
2022-11-15T02:37:35.000Z,6.9
2022-11-15T02:38:51.000Z,5.9
2022-11-15T02:40:08.000Z,6.3
2022-11-15T02:41:24.000Z,7
2022-11-15T02:42:40.000Z,6.6
2022-11-15T02:43:57.000Z,6.8
2022-11-15T02:45:13.000Z,6.3
2022-11-15T02:46:29.000Z,6.3
2022-11-15T02:47:45.000Z,6.7
2022-11-15T02:49:02.000Z,6.9
2022-11-15T02:50:17.000Z,6.6
2022-11-15T02:51:33.000Z,6.6
2022-11-15T02:52:50.000Z,6.4
2022-11-15T02:54:05.000Z,6.3
2022-11-15T02:55:20.000Z,6.5
2022-11-15T02:56:36.000Z,6.4
2022-11-15T02:57:53.000Z,6.1
2022-11-15T02:59:09.000Z,6.8
2022-11-15T03:00:25.000Z,7
2022-11-15T03:01:42.000Z,6.6
2022-11-15T03:02:58.000Z,6.5
2022-11-15T03:04:14.000Z,6.3
2022-11-15T03:05:30.000Z,5.9
2022-11-15T03:06:47.000Z,6.3
2022-11-15T03:08:02.000Z,6.4
2022-11-15T03:09:17.000Z,5.9
2022-11-15T03:10:34.000Z,5.9
2022-11-15T03:11:50.000Z,6.2
2022-11-15T03:13:06.000Z,6.4
2022-11-15T03:14:23.000Z,6.5
2022-11-15T03:15:39.000Z,6.5
2022-11-15T03:18:11.000Z,6.4
2022-11-15T03:19:28.000Z,6.5
2022-11-15T03:20:44.000Z,6.1
2022-11-15T03:22:00.000Z,6.7
2022-11-15T03:23:17.000Z,6.4
2022-11-15T03:24:33.000Z,6
2022-11-15T03:25:49.000Z,6.4
2022-11-15T03:27:04.000Z,6.7
2022-11-15T03:28:21.000Z,6
2022-11-15T03:29:37.000Z,7
2022-11-15T03:30:53.000Z,6.6
2022-11-15T03:32:10.000Z,6.5
2022-11-15T03:33:26.000Z,6.4
2022-11-15T03:34:42.000Z,7.2
2022-11-15T03:35:58.000Z,6.8
2022-11-15T03:37:15.000Z,6.2
2022-11-15T03:38:31.000Z,6.5
2022-11-15T03:39:46.000Z,5.9
2022-11-15T03:41:02.000Z,6
2022-11-15T03:42:18.000Z,6.4
2022-11-15T03:43:34.000Z,6.6
2022-11-15T03:44:50.000Z,6.8
2022-11-15T03:46:07.000Z,6.4
2022-11-15T03:47:23.000Z,6.5
2022-11-15T03:48:38.000Z,6.4
2022-11-15T03:49:54.000Z,6.8
2022-11-15T03:51:10.000Z,6.6
2022-11-15T03:52:26.000Z,6.8
2022-11-15T03:53:43.000Z,6.4
2022-11-15T03:57:31.000Z,6.7
2022-11-15T03:58:48.000Z,6.8
2022-11-15T04:00:04.000Z,6.7
2022-11-15T04:01:20.000Z,6.7
2022-11-15T04:02:37.000Z,6.6
2022-11-15T04:03:53.000Z,6.4
2022-11-15T04:05:08.000Z,6
2022-11-15T04:06:23.000Z,6
2022-11-15T04:07:40.000Z,6.3
2022-11-15T04:08:56.000Z,6.2
2022-11-15T04:10:12.000Z,5.9
2022-11-15T04:11:29.000Z,6.4
2022-11-15T04:12:45.000Z,6.1
2022-11-15T04:14:01.000Z,6.4
2022-11-15T04:15:17.000Z,6.8
2022-11-15T04:16:34.000Z,6.6
2022-11-15T04:17:50.000Z,6
2022-11-15T04:19:05.000Z,5.6
2022-11-15T04:21:37.000Z,6.7
2022-11-15T04:22:53.000Z,6
2022-11-15T04:24:09.000Z,6
2022-11-15T04:25:26.000Z,7.2
2022-11-15T04:26:42.000Z,6.1
2022-11-15T04:27:58.000Z,6
2022-11-15T04:29:14.000Z,6.5
2022-11-15T04:30:30.000Z,6.4
2022-11-15T04:31:46.000Z,6.1
2022-11-15T04:34:19.000Z,5.8
2022-11-15T04:35:35.000Z,6.4
2022-11-15T04:36:51.000Z,6
2022-11-15T04:38:08.000Z,6.4
2022-11-15T04:39:24.000Z,5.9
2022-11-15T04:40:40.000Z,6.1
2022-11-15T04:41:57.000Z,6
2022-11-15T04:43:13.000Z,6
2022-11-15T04:44:29.000Z,5.9
2022-11-15T04:48:17.000Z,5.9
2022-11-15T04:49:32.000Z,6.5
2022-11-15T04:50:48.000Z,6
2022-11-15T04:52:04.000Z,5.8
2022-11-15T04:53:20.000Z,6.2
2022-11-15T04:54:36.000Z,6.3
2022-11-15T04:55:53.000Z,6.8
2022-11-15T04:57:09.000Z,6
2022-11-15T04:58:25.000Z,5.8
2022-11-15T04:59:42.000Z,5.8
2022-11-15T05:00:58.000Z,5.5
2022-11-15T05:02:14.000Z,6
2022-11-15T05:03:30.000Z,6
2022-11-15T05:04:45.000Z,6.4
2022-11-15T05:06:01.000Z,5.9
2022-11-15T05:07:17.000Z,6.2
2022-11-15T05:08:34.000Z,5.7
2022-11-15T05:09:50.000Z,6.2
2022-11-15T05:11:06.000Z,5.4
2022-11-15T05:12:23.000Z,6.1
2022-11-15T05:13:39.000Z,6.1
2022-11-15T05:14:55.000Z,5.9
2022-11-15T05:16:11.000Z,6.1
2022-11-15T05:18:44.000Z,6.2
2022-11-15T05:20:00.000Z,5.8
2022-11-15T05:21:16.000Z,5.8
2022-11-15T05:22:32.000Z,5.4
2022-11-15T05:23:48.000Z,5.3
2022-11-15T05:25:04.000Z,5.7
2022-11-15T05:26:21.000Z,5.2
2022-11-15T05:27:37.000Z,5.9
2022-11-15T05:28:53.000Z,5.8
2022-11-15T05:30:10.000Z,5.8
2022-11-15T05:31:26.000Z,5.8
2022-11-15T05:32:42.000Z,5.7
2022-11-15T05:33:58.000Z,5.8
2022-11-15T05:35:15.000Z,5.7
2022-11-15T05:37:47.000Z,5.4
2022-11-15T05:39:03.000Z,6.2
2022-11-15T05:40:19.000Z,5.4
2022-11-15T05:41:35.000Z,5.8
2022-11-15T05:42:51.000Z,5.1
2022-11-15T05:44:08.000Z,5.4
2022-11-15T05:46:40.000Z,5.4
2022-11-15T05:47:57.000Z,5.5
2022-11-15T05:50:29.000Z,5.6
2022-11-15T05:51:45.000Z,5.4
2022-11-15T05:53:00.000Z,5.4
2022-11-15T05:54:16.000Z,6.3
2022-11-15T05:55:32.000Z,6.2
2022-11-15T05:56:49.000Z,5.5
2022-11-15T05:58:05.000Z,5.6
2022-11-15T06:00:38.000Z,5.4
2022-11-15T06:03:10.000Z,5.5
2022-11-15T06:04:26.000Z,5.5
2022-11-15T06:05:43.000Z,5.1
2022-11-15T06:06:59.000Z,5.8
2022-11-15T06:08:14.000Z,5.6
2022-11-15T06:09:30.000Z,5.5
2022-11-15T06:10:46.000Z,5.2
2022-11-15T06:12:02.000Z,6.3
2022-11-15T06:13:18.000Z,5.9
2022-11-15T06:14:35.000Z,5.4
2022-11-15T06:15:51.000Z,5.7
2022-11-15T06:17:07.000Z,5.7
2022-11-15T06:18:23.000Z,6.3
2022-11-15T06:19:40.000Z,5.9
2022-11-15T06:20:56.000Z,5.7
2022-11-15T06:22:11.000Z,5.6
2022-11-15T06:23:26.000Z,5.9
2022-11-15T06:24:43.000Z,5.6
2022-11-15T06:28:31.000Z,5.9
2022-11-15T06:29:48.000Z,5.8
2022-11-15T06:31:04.000Z,6.3
2022-11-15T06:32:20.000Z,6.5
2022-11-15T06:33:36.000Z,5.9
2022-11-15T06:34:53.000Z,6.5
2022-11-15T06:36:09.000Z,6
2022-11-15T06:37:25.000Z,5.9
2022-11-15T06:38:40.000Z,6.1
2022-11-15T06:41:12.000Z,6.1
2022-11-15T06:42:28.000Z,6
2022-11-15T06:43:44.000Z,6.5
2022-11-15T06:45:01.000Z,6.2
2022-11-15T06:46:17.000Z,5.8
2022-11-15T06:47:33.000Z,5.8
2022-11-15T06:48:49.000Z,6
2022-11-15T06:50:05.000Z,6.2
2022-11-15T06:51:22.000Z,6.1
2022-11-15T06:53:54.000Z,6
2022-11-15T06:55:10.000Z,6
2022-11-15T06:56:26.000Z,6
2022-11-15T06:57:42.000Z,6.1
2022-11-15T06:58:58.000Z,5.7
2022-11-15T07:00:14.000Z,5.6
2022-11-15T07:01:31.000Z,5.9
2022-11-15T07:02:47.000Z,6.4
2022-11-15T07:04:03.000Z,5.7
2022-11-15T07:05:19.000Z,5.4
2022-11-15T07:06:35.000Z,5.8
2022-11-15T07:07:51.000Z,5.5
2022-11-15T07:09:06.000Z,5.5
2022-11-15T07:10:22.000Z,5.4
2022-11-15T07:11:38.000Z,6.6
2022-11-15T07:12:55.000Z,6.9
2022-11-15T07:14:11.000Z,5.8
2022-11-15T07:15:27.000Z,5.8
2022-11-15T07:16:43.000Z,6.6
2022-11-15T07:18:00.000Z,5.9
2022-11-15T07:19:16.000Z,5.9
2022-11-15T07:20:32.000Z,5.7
2022-11-15T07:21:47.000Z,6.6
2022-11-15T07:23:03.000Z,5.7
2022-11-15T07:24:19.000Z,5.6
2022-11-15T07:25:35.000Z,6.3
2022-11-15T07:26:51.000Z,5.7
2022-11-15T07:28:08.000Z,5.3
2022-11-15T07:29:24.000Z,5.9
2022-11-15T07:31:56.000Z,6
2022-11-15T07:33:12.000Z,5.5
2022-11-15T07:34:29.000Z,5.3
2022-11-15T07:35:45.000Z,5.4
2022-11-15T07:37:01.000Z,5.5
2022-11-15T07:38:17.000Z,4.9
2022-11-15T07:39:33.000Z,5.4
2022-11-15T07:40:49.000Z,5.3
2022-11-15T07:42:05.000Z,5.6
2022-11-15T07:43:21.000Z,5.1
2022-11-15T07:44:38.000Z,4.7
2022-11-15T07:45:54.000Z,5.1
2022-11-15T07:47:10.000Z,4.9
2022-11-15T07:48:26.000Z,5.1
2022-11-15T07:49:43.000Z,5
2022-11-15T07:50:59.000Z,4.9
2022-11-15T07:52:15.000Z,5.1
2022-11-15T07:53:31.000Z,4.7
2022-11-15T07:54:47.000Z,4.6
2022-11-15T07:56:03.000Z,4.5
2022-11-15T07:57:19.000Z,4.6
2022-11-15T07:58:35.000Z,4.5
2022-11-15T07:59:51.000Z,4.4
2022-11-15T08:01:08.000Z,4.4
2022-11-15T08:02:24.000Z,5
2022-11-15T08:03:40.000Z,5
2022-11-15T08:04:56.000Z,4.9
2022-11-15T08:10:01.000Z,4.3
2022-11-15T08:11:17.000Z,4.2
2022-11-15T08:12:32.000Z,4.9
2022-11-15T08:13:48.000Z,4.4
2022-11-15T08:15:04.000Z,3.8
2022-11-15T08:16:20.000Z,4.6
2022-11-15T08:17:37.000Z,4.3
2022-11-15T08:18:53.000Z,4.7
2022-11-15T08:20:09.000Z,4.5
2022-11-15T08:21:25.000Z,4
2022-11-15T08:22:42.000Z,4.7
2022-11-15T08:23:58.000Z,4.1
2022-11-15T08:25:13.000Z,3.9
2022-11-15T08:26:28.000Z,3.8
2022-11-15T08:27:45.000Z,3.9
2022-11-15T08:29:01.000Z,4
2022-11-15T08:30:17.000Z,3.8
2022-11-15T08:31:33.000Z,3.7
2022-11-15T08:32:50.000Z,3.6
2022-11-15T08:34:06.000Z,3.8
2022-11-15T08:35:22.000Z,3.6
2022-11-15T08:37:54.000Z,3.6
2022-11-15T08:39:11.000Z,3.5
2022-11-15T08:40:27.000Z,3.6
2022-11-15T08:41:43.000Z,3.7
2022-11-15T08:42:58.000Z,3.4
2022-11-15T08:44:14.000Z,3.4
2022-11-15T08:48:02.000Z,3.1
2022-11-15T08:49:18.000Z,3.2
2022-11-15T08:50:33.000Z,3.4
2022-11-15T08:51:49.000Z,2.8
2022-11-15T08:53:05.000Z,3.3
2022-11-15T08:54:22.000Z,3.4
2022-11-15T08:55:38.000Z,2.9
2022-11-15T08:56:54.000Z,3.4
2022-11-15T08:58:10.000Z,2.3
2022-11-15T09:00:43.000Z,2.7
2022-11-15T09:01:59.000Z,2.7
2022-11-15T09:03:15.000Z,3
2022-11-15T09:04:31.000Z,2.8
2022-11-15T09:05:48.000Z,3
2022-11-15T09:07:03.000Z,2.7
2022-11-15T09:08:19.000Z,2.8
2022-11-15T09:09:35.000Z,2.8
2022-11-15T09:10:52.000Z,2.7
2022-11-15T09:12:08.000Z,2.5
2022-11-15T09:13:24.000Z,3.7
2022-11-15T09:14:40.000Z,2.6
2022-11-15T09:15:57.000Z,2.6
2022-11-15T09:17:12.000Z,2.6
2022-11-15T09:18:27.000Z,2.4
2022-11-15T09:19:43.000Z,2.3
2022-11-15T09:21:00.000Z,2.8
2022-11-15T09:22:16.000Z,2.2
2022-11-15T09:23:32.000Z,2.4
2022-11-15T09:26:04.000Z,2.3
2022-11-15T09:27:21.000Z,2.4
2022-11-15T09:28:37.000Z,2.4
2022-11-15T09:31:09.000Z,2.2
2022-11-15T09:32:26.000Z,2.5
2022-11-15T09:33:41.000Z,2.3
2022-11-15T09:34:56.000Z,2
2022-11-15T09:36:12.000Z,2.2
2022-11-15T09:38:45.000Z,2
2022-11-15T09:40:01.000Z,2.3
2022-11-15T09:41:17.000Z,2.8
2022-11-15T09:42:34.000Z,2.2
2022-11-15T09:43:50.000Z,2.6
2022-11-15T09:45:06.000Z,1.9
2022-11-15T09:46:22.000Z,2.2
2022-11-15T09:47:38.000Z,2
2022-11-15T09:48:55.000Z,2.4
2022-11-15T09:50:11.000Z,1.9
2022-11-15T09:51:26.000Z,2
2022-11-15T09:52:42.000Z,2.2
2022-11-15T09:53:59.000Z,2
2022-11-15T09:55:15.000Z,2
2022-11-15T09:56:31.000Z,2.2
2022-11-15T09:57:47.000Z,2.3
2022-11-15T09:59:04.000Z,2
2022-11-15T10:00:20.000Z,1.9
2022-11-15T10:01:35.000Z,1.8
2022-11-15T10:02:50.000Z,2
2022-11-15T10:04:07.000Z,2.1
2022-11-15T10:05:23.000Z,2
2022-11-15T10:07:55.000Z,1.8
2022-11-15T10:09:12.000Z,2.2
2022-11-15T10:10:28.000Z,2
2022-11-15T10:11:44.000Z,2.1
2022-11-15T10:13:00.000Z,2.2
2022-11-15T10:14:16.000Z,1.7
2022-11-15T10:15:33.000Z,2.4
2022-11-15T10:16:49.000Z,2.5
2022-11-15T10:18:05.000Z,1.9
2022-11-15T10:19:20.000Z,2.1
2022-11-15T10:20:37.000Z,1.9
2022-11-15T10:21:53.000Z,2.1
2022-11-15T10:23:09.000Z,1.8
2022-11-15T10:25:42.000Z,2
2022-11-15T10:26:57.000Z,1.6
2022-11-15T10:29:28.000Z,1.8
2022-11-15T10:30:45.000Z,2.5
2022-11-15T10:32:01.000Z,1.8
2022-11-15T10:33:17.000Z,2
2022-11-15T10:34:33.000Z,1.8
2022-11-15T10:35:49.000Z,2
2022-11-15T10:37:06.000Z,1.5
2022-11-15T10:38:22.000Z,1.7
2022-11-15T10:39:38.000Z,1.5
2022-11-15T10:42:11.000Z,1.5
2022-11-15T10:43:27.000Z,1.8
2022-11-15T10:45:58.000Z,1.8
2022-11-15T10:47:15.000Z,1.6
2022-11-15T10:48:30.000Z,1.9
2022-11-15T10:49:45.000Z,1.6
2022-11-15T10:51:01.000Z,1.4
2022-11-15T10:52:18.000Z,1.7
2022-11-15T10:54:50.000Z,1.7
2022-11-15T10:56:06.000Z,1.6
2022-11-15T10:57:22.000Z,1.6
2022-11-15T10:58:39.000Z,1.5
2022-11-15T10:59:55.000Z,1.6
2022-11-15T11:01:11.000Z,1.3
2022-11-15T11:03:44.000Z,1.4
2022-11-15T11:05:00.000Z,1.4
2022-11-15T11:07:31.000Z,1.4
2022-11-15T11:08:48.000Z,1.3
2022-11-15T11:10:04.000Z,1.6
2022-11-15T11:11:20.000Z,1.4
2022-11-15T11:12:36.000Z,1.6
2022-11-15T11:13:53.000Z,1.2
2022-11-15T11:15:09.000Z,1.3
2022-11-15T11:16:25.000Z,1.3
2022-11-15T11:17:41.000Z,1
2022-11-15T11:18:57.000Z,1.5
2022-11-15T11:20:14.000Z,1.2
2022-11-15T11:21:30.000Z,1.3
2022-11-15T11:22:45.000Z,1.2
2022-11-15T11:24:01.000Z,1.3
2022-11-15T11:25:18.000Z,1.1
2022-11-15T11:26:34.000Z,1.4
2022-11-15T11:27:50.000Z,1.3
2022-11-15T11:29:06.000Z,1.4
2022-11-15T11:30:22.000Z,1.5
2022-11-15T11:31:37.000Z,1.5
2022-11-15T11:34:09.000Z,1.4
2022-11-15T11:35:26.000Z,1.5
2022-11-15T11:36:42.000Z,1.4
2022-11-15T11:37:58.000Z,1.3
2022-11-15T11:39:14.000Z,1.3
2022-11-15T11:40:30.000Z,1.2
2022-11-15T11:41:47.000Z,1.1
2022-11-15T11:43:03.000Z,1
2022-11-15T11:46:52.000Z,1.3
2022-11-15T11:48:07.000Z,1.5
2022-11-15T11:49:22.000Z,1.2
2022-11-15T11:50:38.000Z,1.3
2022-11-15T11:51:55.000Z,1.2
2022-11-15T11:53:11.000Z,1.7
2022-11-15T11:54:27.000Z,1.3
2022-11-15T11:55:43.000Z,1.2
2022-11-15T11:57:00.000Z,1.4
2022-11-15T11:58:16.000Z,1.2
2022-11-15T11:59:32.000Z,1.4
2022-11-15T12:00:48.000Z,1.3
2022-11-15T12:02:04.000Z,1.6
2022-11-15T12:03:19.000Z,1.3
2022-11-15T12:04:35.000Z,1.5
2022-11-15T12:05:51.000Z,1.5
2022-11-15T12:07:07.000Z,1.3
2022-11-15T12:08:24.000Z,1.8
2022-11-15T12:09:40.000Z,1.2
2022-11-15T12:10:56.000Z,0.9
2022-11-15T12:12:12.000Z,1.1
2022-11-15T12:13:29.000Z,1.8
2022-11-15T12:14:45.000Z,1.3
2022-11-15T12:17:16.000Z,1.3
2022-11-15T12:18:32.000Z,1.3
2022-11-15T12:19:48.000Z,1.5
2022-11-15T12:22:20.000Z,1.1
2022-11-15T12:23:36.000Z,1.5
2022-11-15T12:24:51.000Z,1.5
2022-11-15T12:27:23.000Z,1.1
2022-11-15T12:28:40.000Z,1.2
2022-11-15T12:29:56.000Z,1.3
2022-11-15T12:31:12.000Z,1
2022-11-15T12:32:28.000Z,1.2
2022-11-15T12:33:44.000Z,1.2
2022-11-15T12:35:01.000Z,1.2
2022-11-15T12:36:17.000Z,1.3
2022-11-15T12:37:33.000Z,1.6
2022-11-15T12:38:49.000Z,1.7
2022-11-15T12:40:06.000Z,1.1
2022-11-15T12:41:21.000Z,1.2
2022-11-15T12:42:37.000Z,1.3
2022-11-15T12:45:10.000Z,1.3
2022-11-15T12:46:26.000Z,1.2
2022-11-15T12:47:42.000Z,1.1
2022-11-15T12:48:58.000Z,1.1
2022-11-15T12:50:15.000Z,1
2022-11-15T12:51:31.000Z,1.2
2022-11-15T12:52:47.000Z,1.7
2022-11-15T12:54:02.000Z,1.2
2022-11-15T12:55:17.000Z,1.4
2022-11-15T12:56:34.000Z,1.1
2022-11-15T12:57:50.000Z,1.7
2022-11-15T12:59:05.000Z,1.6
2022-11-15T13:00:21.000Z,1.4
2022-11-15T13:01:38.000Z,1.8
2022-11-15T13:02:54.000Z,1.4
2022-11-15T13:04:10.000Z,1.3
2022-11-15T13:05:26.000Z,1.3
2022-11-15T13:06:43.000Z,1.7
2022-11-15T13:07:58.000Z,1.1
2022-11-15T13:09:13.000Z,1.2
2022-11-15T13:11:46.000Z,1.4
2022-11-15T13:13:02.000Z,1.2
2022-11-15T13:14:18.000Z,0.8
2022-11-15T13:15:34.000Z,1.3
2022-11-15T13:16:51.000Z,1.4
2022-11-15T13:18:07.000Z,1.1
2022-11-15T13:19:23.000Z,0.9
2022-11-15T13:21:55.000Z,1.2
2022-11-15T13:23:12.000Z,1.1
2022-11-15T13:24:27.000Z,1.4
2022-11-15T13:25:42.000Z,1.3
2022-11-15T13:26:58.000Z,0.8
2022-11-15T13:28:15.000Z,0.9
2022-11-15T13:29:31.000Z,1.2
2022-11-15T13:30:47.000Z,1.3
2022-11-15T13:32:03.000Z,1.3
2022-11-15T13:33:20.000Z,2.3
2022-11-15T13:34:36.000Z,1.4
2022-11-15T13:37:08.000Z,1.3
2022-11-15T13:38:25.000Z,1.1
2022-11-15T13:39:41.000Z,1.1
2022-11-15T13:40:57.000Z,1.1
2022-11-15T13:42:12.000Z,1.3
2022-11-15T13:43:28.000Z,1.3
2022-11-15T13:44:45.000Z,1.2
2022-11-15T13:46:01.000Z,2
2022-11-15T13:47:17.000Z,1.5
2022-11-15T13:48:33.000Z,1.2
2022-11-15T13:49:50.000Z,1.4
2022-11-15T13:52:22.000Z,1.3
2022-11-15T13:53:38.000Z,1.4
2022-11-15T13:54:55.000Z,1.2
2022-11-15T13:56:11.000Z,1.4
2022-11-15T13:57:27.000Z,1.1
2022-11-15T13:58:42.000Z,1.2
2022-11-15T13:59:59.000Z,1.2
2022-11-15T14:02:31.000Z,1.2
2022-11-15T14:05:02.000Z,1.2
2022-11-15T14:06:18.000Z,1.3
2022-11-15T14:07:33.000Z,1.2
2022-11-15T14:08:49.000Z,1.2
2022-11-15T14:10:05.000Z,0.9
2022-11-15T14:11:22.000Z,1.2
2022-11-15T14:12:38.000Z,1.3
2022-11-15T14:13:54.000Z,1
2022-11-15T14:15:10.000Z,1.3
2022-11-15T14:17:43.000Z,1
2022-11-15T14:18:59.000Z,1
2022-11-15T14:20:15.000Z,1.2
2022-11-15T14:21:32.000Z,1.1
2022-11-15T14:22:48.000Z,1
2022-11-15T14:24:03.000Z,1
2022-11-15T14:25:19.000Z,0.9
2022-11-15T14:26:35.000Z,1.1
2022-11-15T14:27:52.000Z,1.2
2022-11-15T14:30:24.000Z,0.9
2022-11-15T14:31:40.000Z,1.3
2022-11-15T14:32:57.000Z,1.2
2022-11-15T14:34:13.000Z,1.1
2022-11-15T14:35:29.000Z,1.2
2022-11-15T14:36:45.000Z,1.3
2022-11-15T14:39:18.000Z,1.5
2022-11-15T14:40:33.000Z,1.5
2022-11-15T14:41:49.000Z,1.3
2022-11-15T14:43:06.000Z,1.5
2022-11-15T14:44:22.000Z,1.2
2022-11-15T14:45:38.000Z,1.5
2022-11-15T14:46:54.000Z,1.4
2022-11-15T14:49:27.000Z,1.5
2022-11-15T14:50:43.000Z,1.6
2022-11-15T14:51:59.000Z,1.3
2022-11-15T14:53:15.000Z,1.7
2022-11-15T14:54:32.000Z,1.7
2022-11-15T14:55:48.000Z,1.9
2022-11-15T14:57:03.000Z,1.7
2022-11-15T14:58:19.000Z,1.8
2022-11-15T15:00:52.000Z,1.8
2022-11-15T15:02:08.000Z,1.6
2022-11-15T15:03:24.000Z,1.8
2022-11-15T15:04:41.000Z,1.6
2022-11-15T15:05:57.000Z,1.6
2022-11-15T15:08:29.000Z,1.7
2022-11-15T15:09:45.000Z,1.1
2022-11-15T15:11:02.000Z,1.1
2022-11-15T15:12:18.000Z,2
2022-11-15T15:13:33.000Z,1.8
2022-11-15T15:14:49.000Z,1.8
2022-11-15T15:16:06.000Z,1.6
2022-11-15T15:17:22.000Z,1.7
2022-11-15T15:18:38.000Z,1.4
2022-11-15T15:21:11.000Z,1.7
2022-11-15T15:22:27.000Z,1.3
2022-11-15T15:23:43.000Z,1.9
2022-11-15T15:24:59.000Z,1.6
2022-11-15T15:26:15.000Z,1.9
2022-11-15T15:27:32.000Z,1.5
2022-11-15T15:28:48.000Z,1.5
2022-11-15T15:30:03.000Z,1.6
2022-11-15T15:31:19.000Z,1.3
2022-11-15T15:32:36.000Z,1.7
2022-11-15T15:33:52.000Z,1.4
2022-11-15T15:35:08.000Z,1.6
2022-11-15T15:36:24.000Z,2.1
2022-11-15T15:37:40.000Z,1.6
2022-11-15T15:38:55.000Z,1.6
2022-11-15T15:40:11.000Z,1.7
2022-11-15T15:41:27.000Z,1.6
2022-11-15T15:42:44.000Z,1.9
2022-11-15T15:44:00.000Z,1.9
2022-11-15T15:46:32.000Z,1.8
2022-11-15T15:47:49.000Z,1.9
2022-11-15T15:49:05.000Z,1.7
2022-11-15T15:50:21.000Z,1.7
2022-11-15T15:51:37.000Z,1.9
2022-11-15T15:52:53.000Z,1.9
2022-11-15T15:54:10.000Z,1.8
2022-11-15T15:55:25.000Z,2.3
2022-11-15T15:56:41.000Z,2.2
2022-11-15T15:57:57.000Z,2.1
2022-11-15T15:59:14.000Z,2
2022-11-15T16:00:30.000Z,1.8
2022-11-15T16:01:46.000Z,1.8
2022-11-15T16:03:02.000Z,2.2
2022-11-15T16:04:19.000Z,2.1
2022-11-15T16:05:34.000Z,2
2022-11-15T16:06:49.000Z,2.1
2022-11-15T16:08:05.000Z,2.1
2022-11-15T16:09:22.000Z,2.5
2022-11-15T16:10:38.000Z,3.1
2022-11-15T16:11:54.000Z,2.3
2022-11-15T16:13:10.000Z,1.9
2022-11-15T16:14:27.000Z,2
2022-11-15T16:15:43.000Z,2.5
2022-11-15T16:16:59.000Z,2.3
2022-11-15T16:18:15.000Z,2.5
2022-11-15T16:19:32.000Z,2.3
2022-11-15T16:20:48.000Z,2.6
2022-11-15T16:22:04.000Z,2.8
2022-11-15T16:23:20.000Z,3.4
2022-11-15T16:24:36.000Z,1.8
2022-11-15T16:25:52.000Z,2.1
2022-11-15T16:27:08.000Z,2.4
2022-11-15T16:28:25.000Z,1.9
2022-11-15T16:29:41.000Z,2
2022-11-15T16:30:57.000Z,2.2
2022-11-15T16:32:14.000Z,2.3
2022-11-15T16:33:30.000Z,2.2
2022-11-15T16:34:46.000Z,1.9
2022-11-15T16:37:19.000Z,1.8
2022-11-15T16:38:35.000Z,2.7
2022-11-15T16:39:50.000Z,2.4
2022-11-15T16:41:07.000Z,2.4
2022-11-15T16:42:23.000Z,2.5
2022-11-15T16:43:39.000Z,2.3
2022-11-15T16:44:55.000Z,2.4
2022-11-15T16:46:12.000Z,2.1
2022-11-15T16:47:28.000Z,2.1
2022-11-15T16:50:01.000Z,2.6
2022-11-15T16:51:17.000Z,1.9
2022-11-15T16:52:33.000Z,2.4
2022-11-15T16:55:06.000Z,2.2
2022-11-15T16:57:37.000Z,2.8
2022-11-15T16:58:53.000Z,2.6
2022-11-15T17:00:08.000Z,2.8
2022-11-15T17:02:41.000Z,2.3
2022-11-15T17:03:57.000Z,2.9
2022-11-15T17:05:13.000Z,2.4
2022-11-15T17:06:29.000Z,3
2022-11-15T17:07:46.000Z,3.1
2022-11-15T17:09:02.000Z,2.5
2022-11-15T17:11:35.000Z,2.6
2022-11-15T17:14:07.000Z,2.9
2022-11-15T17:15:22.000Z,3.7
2022-11-15T17:16:38.000Z,3.8
2022-11-15T17:17:53.000Z,3.1
2022-11-15T17:19:09.000Z,3
2022-11-15T17:21:42.000Z,2.8
2022-11-15T17:22:58.000Z,3.7
2022-11-15T17:24:14.000Z,3.8
2022-11-15T17:25:31.000Z,2.9
2022-11-15T17:26:47.000Z,2.9
2022-11-15T17:28:03.000Z,2.9
2022-11-15T17:29:20.000Z,3
2022-11-15T17:30:36.000Z,3.1
2022-11-15T17:31:52.000Z,2.6
2022-11-15T17:33:09.000Z,2.6
2022-11-15T17:34:24.000Z,2.6
2022-11-15T17:35:40.000Z,2.6
2022-11-15T17:36:56.000Z,2.8
2022-11-15T17:38:13.000Z,2.7
2022-11-15T17:39:29.000Z,2.7
2022-11-15T17:40:45.000Z,3.4
2022-11-15T17:42:02.000Z,2.6
2022-11-15T17:43:18.000Z,3.3
2022-11-15T17:44:33.000Z,2.8
2022-11-15T17:45:48.931Z,2.8
2022-11-15T17:47:05.000Z,3.2
2022-11-15T17:48:21.000Z,2.7
2022-11-15T17:49:37.000Z,2.6
2022-11-15T17:50:54.000Z,2.9
2022-11-15T17:52:10.000Z,2.8
2022-11-15T17:53:26.000Z,2.9
2022-11-15T17:54:42.000Z,3
2022-11-15T17:55:59.000Z,3
2022-11-15T17:57:15.000Z,3.4
2022-11-15T17:58:30.000Z,3
2022-11-15T17:59:46.000Z,3.3
2022-11-15T18:01:02.000Z,3.3
2022-11-15T18:02:18.000Z,3
2022-11-15T18:03:34.000Z,3.1
2022-11-15T18:06:07.000Z,3.1
2022-11-15T18:07:23.000Z,2.7
2022-11-15T18:08:40.000Z,2.7
2022-11-15T18:09:56.000Z,3.1
2022-11-15T18:11:12.000Z,2.7
2022-11-15T18:12:29.000Z,2.9
2022-11-15T18:13:45.000Z,2.8
2022-11-15T18:15:01.000Z,3.2
2022-11-15T18:16:16.000Z,2.9
2022-11-15T18:18:49.000Z,2.8
2022-11-15T18:20:04.000Z,2.7
2022-11-15T18:21:20.000Z,2.8
2022-11-15T18:22:36.000Z,2.9
2022-11-15T18:23:52.000Z,2.6
2022-11-15T18:25:08.000Z,2.6
2022-11-15T18:26:25.000Z,2.5
2022-11-15T18:27:41.000Z,3
2022-11-15T18:28:57.000Z,2.7
2022-11-15T18:31:30.000Z,3.4
2022-11-15T18:32:46.000Z,3
2022-11-15T18:34:02.000Z,3
2022-11-15T18:35:19.000Z,3.1
2022-11-15T18:36:35.000Z,3.2
2022-11-15T18:37:50.000Z,3.3
2022-11-15T18:39:07.000Z,3
2022-11-15T18:40:23.000Z,2.8
2022-11-15T18:41:39.000Z,3.2
2022-11-15T18:44:12.000Z,2.8
2022-11-15T18:45:27.000Z,3.1
2022-11-15T18:46:42.000Z,3.2
2022-11-15T18:47:59.000Z,3.4
2022-11-15T18:49:15.000Z,3.4
2022-11-15T18:50:31.000Z,3.4
2022-11-15T18:51:48.000Z,3.7
2022-11-15T18:53:04.000Z,3.5
2022-11-15T18:54:20.000Z,3.8
2022-11-15T18:55:36.000Z,4.4
2022-11-15T18:56:53.000Z,4.2
2022-11-15T18:58:09.000Z,3.6
2022-11-15T18:59:24.000Z,3.4
2022-11-15T19:01:56.000Z,3.1
2022-11-15T19:03:12.000Z,3.9
2022-11-15T19:04:28.000Z,3.3
2022-11-15T19:05:45.000Z,3.3
2022-11-15T19:07:01.000Z,3.3
2022-11-15T19:08:17.000Z,3.5
2022-11-15T19:09:34.000Z,3.1
2022-11-15T19:10:50.000Z,4.1
2022-11-15T19:12:06.000Z,4.1
2022-11-15T19:13:22.000Z,3.6
2022-11-15T19:14:38.000Z,3.3
2022-11-15T19:15:53.000Z,3.4